createdAt,value
2018-08-22T00:01:38.884Z,61.21
2018-08-22T00:06:33.252Z,61.41
2018-08-22T00:11:27.725Z,61.95
2018-08-22T00:16:22.185Z,61.69
2018-08-22T00:21:16.648Z,62.14
2018-08-22T00:26:11.124Z,62.28
2018-08-22T00:31:05.739Z,62.22
2018-08-22T00:36:00.200Z,62.04
2018-08-22T00:40:54.653Z,62.19
2018-08-22T00:45:49.127Z,62.96
2018-08-22T00:50:43.556Z,64.07
2018-08-22T00:55:38.011Z,64.76
2018-08-22T01:00:32.436Z,64.68
2018-08-22T01:05:26.897Z,64.91
2018-08-22T01:10:21.352Z,65.09
2018-08-22T01:15:15.841Z,65.64
2018-08-22T01:20:10.360Z,66.40
2018-08-22T01:25:04.944Z,66.17
2018-08-22T01:29:59.488Z,67.37
2018-08-22T01:34:53.968Z,67.29
2018-08-22T01:39:49.091Z,67.25
2018-08-22T01:44:43.672Z,67.13
2018-08-22T01:49:38.408Z,66.51
2018-08-22T01:54:32.872Z,67.38
2018-08-22T01:59:27.375Z,67.72
2018-08-22T02:04:22.046Z,67.17
2018-08-22T02:09:16.483Z,66.21
2018-08-22T02:14:11.991Z,68.02
2018-08-22T02:19:07.296Z,68.51
2018-08-22T02:24:01.800Z,68.67
2018-08-22T02:28:56.292Z,68.47
2018-08-22T02:33:50.767Z,68.16
2018-08-22T02:38:45.244Z,69.04
2018-08-22T02:43:39.734Z,69.96
2018-08-22T02:48:38.228Z,69.66
2018-08-22T02:53:32.719Z,69.72
2018-08-22T02:58:27.213Z,69.50
2018-08-22T03:03:21.690Z,69.83
2018-08-22T03:08:16.128Z,70.46
2018-08-22T03:13:10.617Z,70.67
2018-08-22T03:18:05.136Z,70.89
2018-08-22T03:22:59.581Z,70.84
2018-08-22T03:27:54.120Z,70.97
2018-08-22T03:32:48.585Z,70.60
2018-08-22T03:37:43.153Z,71.37
2018-08-22T03:42:37.629Z,71.35
2018-08-22T03:47:32.125Z,70.99
2018-08-22T03:52:26.625Z,71.65
2018-08-22T03:57:21.108Z,72.18
2018-08-22T04:02:15.592Z,71.62
2018-08-22T04:07:10.111Z,72.37
2018-08-22T04:12:04.643Z,72.54
2018-08-22T04:16:59.140Z,72.91
2018-08-22T04:21:53.604Z,72.47
2018-08-22T04:26:48.262Z,71.71
2018-08-22T04:31:42.758Z,71.80
2018-08-22T04:36:37.254Z,72.09
2018-08-22T04:41:31.740Z,71.94
2018-08-22T04:46:26.255Z,71.04
2018-08-22T04:51:20.745Z,69.68
2018-08-22T04:56:15.282Z,66.75
2018-08-22T05:01:09.800Z,65.34
2018-08-22T05:06:04.426Z,62.93
2018-08-22T05:10:58.996Z,60.49
2018-08-22T05:15:53.565Z,58.80
2018-08-22T05:20:48.161Z,56.28
2018-08-22T05:25:42.541Z,53.21
2018-08-22T05:30:37.184Z,50.87
2018-08-22T05:35:31.570Z,47.93
2018-08-22T05:40:25.990Z,47.31
2018-08-22T05:45:20.377Z,46.37
2018-08-22T05:50:14.755Z,45.14
2018-08-22T05:55:09.149Z,45.22
2018-08-22T06:00:03.560Z,44.59
2018-08-22T06:04:58.073Z,44.99
2018-08-22T06:09:52.480Z,43.90
2018-08-22T06:14:47.077Z,43.36
2018-08-22T06:19:41.493Z,44.40
2018-08-22T06:24:38.237Z,45.12
2018-08-22T06:29:56.246Z,44.92
2018-08-22T06:34:51.400Z,45.74
2018-08-22T06:39:46.048Z,46.38
2018-08-22T06:44:40.926Z,46.18
2018-08-22T06:49:35.348Z,46.59
2018-08-22T06:54:29.764Z,46.52
2018-08-22T06:59:24.264Z,46.56
2018-08-22T07:04:19.364Z,46.16
2018-08-22T07:09:13.778Z,47.44
2018-08-22T07:14:09.003Z,46.24
2018-08-22T07:19:04.238Z,46.49
2018-08-22T07:23:58.622Z,49.96
2018-08-22T07:28:54.923Z,49.02
2018-08-22T07:33:49.662Z,47.92
2018-08-22T07:38:44.563Z,46.78
2018-08-22T07:43:38.998Z,47.06
2018-08-22T07:48:34.590Z,47.86
2018-08-22T07:53:30.167Z,47.13
2018-08-22T07:58:25.329Z,46.47
2018-08-22T08:03:19.808Z,47.33
2018-08-22T08:08:14.982Z,48.43
2018-08-22T08:13:17.597Z,50.32
2018-08-22T08:18:12.143Z,51.04
2018-08-22T08:23:06.720Z,50.75
2018-08-22T08:28:01.364Z,50.65
2018-08-22T08:32:56.198Z,49.29
2018-08-22T08:37:53.498Z,48.04
2018-08-22T08:42:49.017Z,47.23
2018-08-22T08:47:43.764Z,47.47
2018-08-22T08:52:40.000Z,47.49
2018-08-22T08:57:35.002Z,46.73
2018-08-22T09:02:29.438Z,47.29
2018-08-22T09:07:23.965Z,47.69
2018-08-22T09:12:18.931Z,46.99
2018-08-22T09:17:13.269Z,47.33
2018-08-22T09:22:07.732Z,46.87
2018-08-22T09:27:05.208Z,45.59
2018-08-22T09:32:00.228Z,46.26
2018-08-22T09:36:55.228Z,46.67
2018-08-22T09:41:50.377Z,47.48
2018-08-22T09:46:45.605Z,45.98
2018-08-22T09:51:40.349Z,45.18
2018-08-22T09:56:35.031Z,43.66
2018-08-22T10:01:35.180Z,43.05
2018-08-22T10:06:37.360Z,43.34
2018-08-22T10:11:31.680Z,42.14
2018-08-22T10:16:28.192Z,44.60
2018-08-22T10:21:22.868Z,44.94
2018-08-22T10:26:17.273Z,43.56
2018-08-22T10:31:11.988Z,43.54
2018-08-22T10:36:07.276Z,43.61
2018-08-22T10:41:02.102Z,42.92
2018-08-22T10:45:56.549Z,39.67
2018-08-22T10:50:51.563Z,38.61
2018-08-22T10:55:46.689Z,39.14
2018-08-22T11:00:41.140Z,37.56
2018-08-22T11:05:40.949Z,37.33
2018-08-22T11:10:35.500Z,36.59
2018-08-22T11:15:37.006Z,35.80
2018-08-22T11:20:34.196Z,39.12
2018-08-22T11:25:45.683Z,38.83
2018-08-22T11:30:57.780Z,37.78
2018-08-22T11:35:50.555Z,37.47
2018-08-22T11:40:44.981Z,36.37
2018-08-22T11:45:42.443Z,36.01
2018-08-22T11:50:37.129Z,35.89
2018-08-22T11:55:31.541Z,35.18
2018-08-22T12:00:25.956Z,36.13
2018-08-22T12:05:20.761Z,36.08
2018-08-22T12:10:15.232Z,36.39
2018-08-22T12:15:09.769Z,36.97
2018-08-22T12:20:04.634Z,36.84
2018-08-22T12:24:59.033Z,37.37
2018-08-22T12:29:53.516Z,36.78
2018-08-22T12:34:47.963Z,36.05
2018-08-22T12:39:42.398Z,36.18
2018-08-22T12:44:37.005Z,38.10
2018-08-22T12:49:31.460Z,37.09
2018-08-22T12:54:26.032Z,37.04
2018-08-22T12:59:20.528Z,36.25
2018-08-22T13:04:15.007Z,34.35
2018-08-22T13:09:10.615Z,33.87
2018-08-22T13:14:05.847Z,32.46
2018-08-22T13:19:00.540Z,31.82
2018-08-22T13:23:54.947Z,31.84
2018-08-22T13:28:49.345Z,31.65
2018-08-22T13:33:43.756Z,31.66
2018-08-22T13:38:38.200Z,30.23
2018-08-22T13:43:32.673Z,30.38
2018-08-22T13:48:27.069Z,31.01
2018-08-22T13:53:21.463Z,28.10
2018-08-22T13:58:15.889Z,27.00
2018-08-22T14:03:10.280Z,26.29
2018-08-22T14:08:04.813Z,26.59
2018-08-22T14:12:59.936Z,29.50
2018-08-22T14:17:54.349Z,29.51
2018-08-22T14:22:48.737Z,28.77
2018-08-22T14:27:43.139Z,28.48
2018-08-22T14:32:38.826Z,27.89
2018-08-22T14:37:33.320Z,28.77
2018-08-22T14:42:29.583Z,29.32
2018-08-22T14:47:37.497Z,29.18
2018-08-22T14:52:32.508Z,29.42
2018-08-22T14:57:27.182Z,30.33
2018-08-22T15:02:21.794Z,29.35
2018-08-22T15:07:16.309Z,28.60
2018-08-22T15:12:10.849Z,29.31
2018-08-22T15:17:05.396Z,30.33
2018-08-22T15:21:59.891Z,29.96
2018-08-22T15:26:54.328Z,29.84
2018-08-22T15:31:48.817Z,30.12
2018-08-22T15:36:43.261Z,29.88
2018-08-22T15:41:37.948Z,30.98
2018-08-22T15:46:32.448Z,29.53
2018-08-22T15:51:26.953Z,28.82
2018-08-22T15:56:21.549Z,28.50
2018-08-22T16:01:16.073Z,28.96
2018-08-22T16:06:11.321Z,29.35
2018-08-22T16:11:08.801Z,29.88
2018-08-22T16:16:03.758Z,27.90
2018-08-22T16:21:00.412Z,27.00
2018-08-22T16:25:55.934Z,26.83
2018-08-22T16:30:57.111Z,27.07
2018-08-22T16:35:48.456Z,26.75
2018-08-22T16:40:44.953Z,27.13
2018-08-22T16:45:45.868Z,27.17
2018-08-22T16:50:40.392Z,27.65
2018-08-22T16:55:35.030Z,26.98
2018-08-22T17:00:36.917Z,28.25
2018-08-22T17:05:31.401Z,27.03
2018-08-22T17:10:32.053Z,27.44
2018-08-22T17:15:26.602Z,27.99
2018-08-22T17:20:21.220Z,26.68
2018-08-22T17:25:15.904Z,26.40
2018-08-22T17:30:10.569Z,26.88
2018-08-22T17:35:05.056Z,26.95
2018-08-22T17:39:59.795Z,26.22
2018-08-22T17:44:54.525Z,26.49
2018-08-22T17:50:04.393Z,28.38
2018-08-22T17:54:58.974Z,29.03
2018-08-22T17:59:53.724Z,29.76
2018-08-22T18:05:00.029Z,29.60
2018-08-22T18:09:54.533Z,30.93
2018-08-22T18:14:49.133Z,32.33
2018-08-22T18:19:43.679Z,32.49
2018-08-22T18:24:58.442Z,33.82
2018-08-22T18:29:52.982Z,35.20
2018-08-22T18:35:07.131Z,35.36
2018-08-22T18:40:19.632Z,37.19
2018-08-22T18:45:14.130Z,37.61
2018-08-22T18:50:08.641Z,38.41
2018-08-22T18:55:03.525Z,38.73
2018-08-22T18:59:58.060Z,38.84
2018-08-22T19:04:52.609Z,39.11
2018-08-22T19:09:47.102Z,40.26
2018-08-22T19:14:48.178Z,41.11
2018-08-22T19:19:44.437Z,43.11
2018-08-22T19:24:38.947Z,43.91
2018-08-22T19:29:34.514Z,45.00
2018-08-22T19:34:29.005Z,45.82
2018-08-22T19:39:23.489Z,46.59
2018-08-22T19:44:18.020Z,48.68
2018-08-22T19:49:12.649Z,48.46
2018-08-22T19:54:08.210Z,49.92
2018-08-22T19:59:03.264Z,49.85
2018-08-22T20:03:57.717Z,49.67
2018-08-22T20:08:56.433Z,49.89
2018-08-22T20:13:54.802Z,48.83
2018-08-22T20:18:53.976Z,47.95
2018-08-22T20:23:49.055Z,50.15
2018-08-22T20:28:47.581Z,49.05
2018-08-22T20:33:51.952Z,48.99
2018-08-22T20:38:46.753Z,48.32
2018-08-22T20:43:41.276Z,49.04
2018-08-22T20:48:35.825Z,50.32
2018-08-22T20:53:30.450Z,50.45
2018-08-22T20:58:30.024Z,51.13
2018-08-22T21:03:24.541Z,53.31
2018-08-22T21:08:19.154Z,53.09
2018-08-22T21:13:23.548Z,54.01
2018-08-22T21:18:18.041Z,52.96
2018-08-22T21:23:12.518Z,53.00
2018-08-22T21:28:06.997Z,53.16
2018-08-22T21:33:01.521Z,51.74
2018-08-22T21:38:02.233Z,52.84
2018-08-22T21:42:56.720Z,52.50
2018-08-22T21:48:05.232Z,52.24
2018-08-22T21:53:02.865Z,51.40
2018-08-22T21:57:57.365Z,51.31
2018-08-22T22:02:51.916Z,52.08
2018-08-22T22:07:46.368Z,52.51
2018-08-22T22:12:41.701Z,51.30
2018-08-22T22:17:36.244Z,51.43
2018-08-22T22:22:30.747Z,50.61
2018-08-22T22:27:25.656Z,51.43
2018-08-22T22:32:20.257Z,52.85
2018-08-22T22:37:14.736Z,52.97
2018-08-22T22:42:16.726Z,54.89
2018-08-22T22:47:15.268Z,54.96
2018-08-22T22:52:26.484Z,55.88
2018-08-22T22:57:20.936Z,56.62
2018-08-22T23:02:15.457Z,56.05
2018-08-22T23:07:22.324Z,54.63
2018-08-22T23:12:17.352Z,54.07
2018-08-22T23:17:11.800Z,53.35
2018-08-22T23:22:06.305Z,54.04
2018-08-22T23:27:00.736Z,54.73
2018-08-22T23:31:55.268Z,56.31
2018-08-22T23:36:49.732Z,55.85
2018-08-22T23:41:44.249Z,54.93
2018-08-22T23:46:38.709Z,54.75
2018-08-22T23:51:33.383Z,53.83
2018-08-22T23:56:30.003Z,53.68
